createdAt,value
2023-01-25T00:02:09.562Z,6.10
2023-01-25T00:04:37.229Z,5.47
2023-01-25T00:07:06.154Z,5.88
2023-01-25T00:09:33.750Z,4.78
2023-01-25T00:12:01.330Z,5.40
2023-01-25T00:14:28.884Z,6.63
2023-01-25T00:16:56.543Z,5.68
2023-01-25T00:19:24.226Z,5.53
2023-01-25T00:21:51.831Z,6.90
2023-01-25T00:24:22.990Z,6.88
2023-01-25T00:26:50.817Z,5.05
2023-01-25T00:29:18.837Z,5.43
2023-01-25T00:31:51.352Z,5.45
2023-01-25T00:34:37.478Z,6.15
2023-01-25T00:37:13.367Z,4.22
2023-01-25T00:39:42.878Z,4.22
2023-01-25T00:42:13.166Z,4.60
2023-01-25T00:44:41.093Z,6.63
2023-01-25T00:47:10.165Z,6.28
2023-01-25T00:49:37.856Z,5.82
2023-01-25T00:52:05.613Z,5.32
2023-01-25T00:54:33.174Z,6.97
2023-01-25T00:57:02.279Z,6.63
2023-01-25T00:59:30.175Z,5.18
2023-01-25T01:01:57.816Z,4.97
2023-01-25T01:04:25.979Z,4.88
2023-01-25T01:06:54.335Z,6.03
2023-01-25T01:09:22.917Z,4.88
2023-01-25T01:11:52.771Z,5.07
2023-01-25T01:14:22.047Z,4.65
2023-01-25T01:16:49.786Z,5.05
2023-01-25T01:19:17.467Z,6.20
2023-01-25T01:21:45.058Z,6.43
2023-01-25T01:24:12.734Z,4.53
2023-01-25T01:26:40.323Z,4.63
2023-01-25T01:29:07.978Z,5.70
2023-01-25T01:31:38.571Z,6.63
2023-01-25T01:34:13.212Z,5.03
2023-01-25T01:36:40.906Z,5.35
2023-01-25T01:39:08.908Z,5.95
2023-01-25T01:41:36.967Z,6.32
2023-01-25T01:44:05.686Z,4.65
2023-01-25T01:46:35.759Z,5.05
2023-01-25T01:49:06.085Z,6.95
2023-01-25T01:51:40.394Z,5.38
2023-01-25T01:54:12.607Z,5.50
2023-01-25T01:56:44.065Z,5.60
2023-01-25T01:59:11.980Z,5.20
2023-01-25T02:01:40.585Z,4.72
2023-01-25T02:04:10.343Z,4.40
2023-01-25T02:06:44.635Z,4.88
2023-01-25T02:09:14.195Z,5.15
2023-01-25T02:11:42.037Z,6.03
2023-01-25T02:14:09.930Z,7.07
2023-01-25T02:16:37.527Z,7.57
2023-01-25T02:19:05.891Z,5.40
2023-01-25T02:21:38.014Z,6.40
2023-01-25T02:24:10.233Z,5.63
2023-01-25T02:26:41.087Z,6.63
2023-01-25T02:29:10.306Z,5.25
2023-01-25T02:31:38.161Z,5.97
2023-01-25T02:34:05.846Z,4.95
2023-01-25T02:36:34.391Z,4.88
2023-01-25T02:39:04.557Z,6.20
2023-01-25T02:41:33.559Z,5.43
2023-01-25T02:44:03.021Z,5.55
2023-01-25T02:46:31.902Z,5.07
2023-01-25T02:49:00.496Z,5.00
2023-01-25T02:51:31.111Z,5.97
2023-01-25T02:53:58.892Z,5.63
2023-01-25T02:56:26.832Z,5.68
2023-01-25T02:58:54.826Z,5.60
2023-01-25T03:01:23.956Z,4.45
2023-01-25T03:03:51.671Z,6.10
2023-01-25T03:06:20.174Z,5.80
2023-01-25T03:08:48.232Z,5.88
2023-01-25T03:11:15.905Z,6.03
2023-01-25T03:13:44.668Z,4.65
2023-01-25T03:16:13.200Z,5.78
2023-01-25T03:18:44.747Z,4.38
2023-01-25T03:21:14.070Z,4.60
2023-01-25T03:23:42.724Z,5.72
2023-01-25T03:26:12.890Z,5.43
2023-01-25T03:28:53.649Z,5.20
2023-01-25T03:31:21.419Z,6.25
2023-01-25T03:33:50.534Z,4.75
2023-01-25T03:36:19.627Z,6.13
2023-01-25T03:38:47.329Z,5.55
2023-01-25T03:41:15.260Z,6.82
2023-01-25T03:43:43.998Z,5.60
2023-01-25T03:46:11.677Z,6.05
2023-01-25T03:48:39.704Z,5.60
2023-01-25T03:51:08.928Z,4.65
2023-01-25T03:53:37.398Z,6.05
2023-01-25T03:56:11.776Z,5.20
2023-01-25T03:58:43.870Z,4.82
2023-01-25T04:01:11.503Z,4.97
2023-01-25T04:03:39.563Z,5.95
2023-01-25T04:06:09.094Z,5.72
2023-01-25T04:08:38.402Z,6.20
2023-01-25T04:11:08.439Z,6.20
2023-01-25T04:13:36.720Z,5.13
2023-01-25T04:16:08.762Z,5.88
2023-01-25T04:19:02.570Z,6.28
2023-01-25T04:21:33.233Z,5.47
2023-01-25T04:24:01.137Z,5.60
2023-01-25T04:26:30.288Z,5.43
2023-01-25T04:29:00.581Z,6.15
2023-01-25T04:31:28.280Z,5.22
2023-01-25T04:33:58.013Z,6.57
2023-01-25T04:36:25.853Z,6.07
2023-01-25T04:38:54.821Z,7.22
2023-01-25T04:41:26.815Z,5.18
2023-01-25T04:43:56.022Z,4.25
2023-01-25T04:46:23.689Z,4.32
2023-01-25T04:48:51.231Z,4.95
2023-01-25T04:51:19.156Z,5.40
2023-01-25T04:53:46.803Z,4.80
2023-01-25T04:56:16.065Z,5.80
2023-01-25T04:58:55.497Z,5.68
2023-01-25T05:01:23.415Z,5.78
2023-01-25T05:03:52.592Z,6.22
2023-01-25T05:06:39.800Z,5.53
2023-01-25T05:09:07.460Z,5.57
2023-01-25T05:11:37.458Z,6.13
2023-01-25T05:14:08.608Z,5.65
2023-01-25T05:16:36.270Z,6.13
2023-01-25T05:19:04.803Z,4.93
2023-01-25T05:22:01.948Z,5.50
2023-01-25T05:24:50.722Z,6.75
2023-01-25T05:27:20.008Z,5.57
2023-01-25T05:29:56.985Z,7.05
2023-01-25T05:32:44.806Z,6.60
2023-01-25T05:35:15.054Z,6.18
2023-01-25T05:37:43.707Z,5.60
2023-01-25T05:40:17.318Z,5.75
2023-01-25T05:42:46.761Z,6.22
2023-01-25T05:45:18.439Z,4.85
2023-01-25T05:47:47.521Z,5.60
2023-01-25T05:50:15.135Z,5.00
2023-01-25T05:52:52.835Z,6.00
2023-01-25T05:55:20.495Z,4.57
2023-01-25T05:57:51.080Z,5.93
2023-01-25T06:00:19.235Z,6.20
2023-01-25T06:02:46.919Z,5.38
2023-01-25T06:05:19.227Z,5.18
2023-01-25T06:07:46.885Z,5.18
2023-01-25T06:10:15.320Z,5.10
2023-01-25T06:12:43.781Z,5.30
2023-01-25T06:15:12.833Z,6.25
2023-01-25T06:17:41.250Z,5.07
2023-01-25T06:20:25.315Z,5.57
2023-01-25T06:23:10.717Z,6.05
2023-01-25T06:25:38.312Z,5.75
2023-01-25T06:28:06.441Z,5.50
2023-01-25T06:30:35.388Z,12.95
2023-01-25T06:33:03.167Z,13.43
2023-01-25T06:35:32.117Z,14.13
2023-01-25T06:38:00.639Z,14.15
2023-01-25T06:40:28.826Z,14.10
2023-01-25T06:42:56.411Z,13.90
2023-01-25T06:45:24.017Z,13.65
2023-01-25T06:47:52.997Z,14.43
2023-01-25T06:50:20.578Z,14.05
2023-01-25T06:52:52.530Z,14.48
2023-01-25T06:55:20.135Z,16.20
2023-01-25T06:57:48.060Z,15.23
2023-01-25T07:00:15.950Z,15.50
2023-01-25T07:02:43.877Z,15.82
2023-01-25T07:05:12.840Z,17.25
2023-01-25T07:07:40.430Z,15.98
2023-01-25T07:10:08.419Z,15.57
2023-01-25T07:12:36.029Z,15.77
2023-01-25T07:15:03.754Z,15.43
2023-01-25T07:17:31.360Z,15.55
2023-01-25T07:19:58.917Z,15.73
2023-01-25T07:22:27.853Z,15.95
2023-01-25T07:24:57.775Z,16.38
2023-01-25T07:27:25.373Z,16.85
2023-01-25T07:29:52.995Z,16.23
2023-01-25T07:32:20.691Z,15.82
2023-01-25T07:34:48.301Z,16.90
2023-01-25T07:37:15.833Z,15.90
2023-01-25T07:39:48.537Z,14.88
2023-01-25T07:42:16.199Z,16.02
2023-01-25T07:44:52.402Z,15.75
2023-01-25T07:47:19.951Z,16.02
2023-01-25T07:49:47.521Z,16.20
2023-01-25T07:52:15.160Z,17.33
2023-01-25T07:54:42.709Z,16.00
2023-01-25T07:57:11.638Z,15.65
2023-01-25T07:59:39.198Z,15.52
2023-01-25T08:02:06.980Z,15.98
2023-01-25T08:04:34.558Z,16.20
2023-01-25T08:07:02.148Z,15.48
2023-01-25T08:09:29.771Z,16.13
2023-01-25T08:11:57.347Z,16.45
2023-01-25T08:14:26.410Z,15.63
2023-01-25T08:16:53.967Z,15.52
2023-01-25T08:19:21.980Z,17.42
2023-01-25T08:21:49.757Z,15.15
2023-01-25T08:24:20.109Z,15.32
2023-01-25T08:26:48.331Z,16.77
2023-01-25T08:29:15.922Z,6.95
2023-01-25T08:31:45.247Z,6.15
2023-01-25T08:34:13.089Z,5.30
2023-01-25T08:36:40.651Z,5.45
2023-01-25T08:39:09.354Z,5.65
2023-01-25T08:41:37.268Z,5.57
2023-01-25T08:44:05.278Z,6.20
2023-01-25T08:46:33.748Z,6.55
2023-01-25T08:49:03.139Z,6.13
2023-01-25T08:51:31.675Z,5.63
2023-01-25T08:54:02.620Z,6.85
2023-01-25T08:56:30.202Z,5.65
2023-01-25T08:58:57.774Z,5.28
2023-01-25T09:01:25.762Z,5.65
2023-01-25T09:03:55.001Z,5.93
2023-01-25T09:06:23.963Z,5.85
2023-01-25T09:08:51.541Z,5.20
2023-01-25T09:11:20.061Z,6.22
2023-01-25T09:13:48.870Z,5.50
2023-01-25T09:16:18.097Z,4.68
2023-01-25T09:18:49.741Z,4.40
2023-01-25T09:21:19.046Z,5.10
2023-01-25T09:23:57.665Z,4.60
2023-01-25T09:26:32.628Z,5.15
2023-01-25T09:29:00.251Z,6.03
2023-01-25T09:31:28.103Z,4.80
2023-01-25T09:34:16.736Z,6.20
2023-01-25T09:36:44.575Z,5.95
2023-01-25T09:39:13.629Z,4.75
2023-01-25T09:42:06.623Z,5.72
2023-01-25T09:44:48.004Z,5.80
2023-01-25T09:47:19.207Z,5.07
2023-01-25T09:49:52.904Z,6.55
2023-01-25T09:52:42.246Z,4.97
2023-01-25T09:55:14.339Z,5.07
2023-01-25T09:57:43.649Z,4.88
2023-01-25T10:00:16.373Z,4.35
2023-01-25T10:02:47.464Z,5.35
2023-01-25T10:05:17.124Z,5.53
2023-01-25T10:07:50.948Z,5.72
2023-01-25T10:10:21.063Z,6.25
2023-01-25T10:12:48.660Z,6.30
2023-01-25T10:15:19.837Z,7.07
2023-01-25T10:17:49.745Z,5.68
2023-01-25T10:20:24.620Z,4.97
2023-01-25T10:22:54.133Z,5.43
2023-01-25T10:25:30.266Z,5.40
2023-01-25T10:28:06.265Z,4.57
2023-01-25T10:30:37.364Z,6.07
2023-01-25T10:33:12.055Z,5.55
2023-01-25T10:35:43.243Z,6.57
2023-01-25T10:38:16.093Z,5.97
2023-01-25T10:40:47.538Z,6.47
2023-01-25T10:43:17.431Z,5.68
2023-01-25T10:45:45.406Z,4.78
2023-01-25T10:48:15.106Z,7.22
2023-01-25T10:50:43.722Z,6.18
2023-01-25T10:53:21.595Z,5.68
2023-01-25T10:55:56.907Z,6.93
2023-01-25T10:58:31.581Z,6.05
2023-01-25T11:00:59.244Z,7.07
2023-01-25T11:03:34.545Z,6.55
2023-01-25T11:06:02.154Z,5.90
2023-01-25T11:08:34.057Z,6.47
2023-01-25T11:11:13.655Z,5.60
2023-01-25T11:13:41.788Z,6.38
2023-01-25T11:16:19.337Z,6.88
2023-01-25T11:18:51.421Z,5.78
2023-01-25T11:21:22.126Z,7.13
2023-01-25T11:23:59.257Z,5.47
2023-01-25T11:26:28.498Z,6.30
2023-01-25T11:29:07.502Z,5.78
2023-01-25T11:31:36.143Z,6.97
2023-01-25T11:34:03.818Z,6.60
2023-01-25T11:36:34.582Z,6.60
2023-01-25T11:39:14.964Z,5.82
2023-01-25T11:41:54.079Z,5.90
2023-01-25T11:44:41.576Z,6.32
2023-01-25T11:47:15.219Z,5.95
2023-01-25T11:49:46.902Z,7.18
2023-01-25T11:52:21.846Z,6.85
2023-01-25T11:54:52.397Z,5.40
2023-01-25T11:57:27.766Z,6.28
2023-01-25T12:00:02.025Z,6.63
2023-01-25T12:02:45.120Z,7.13
2023-01-25T12:05:22.855Z,7.38
2023-01-25T12:07:52.443Z,6.72
2023-01-25T12:10:28.107Z,7.47
2023-01-25T12:13:01.496Z,6.03
2023-01-25T12:15:35.532Z,6.65
2023-01-25T12:18:15.724Z,7.85
2023-01-25T12:20:54.625Z,8.88
2023-01-25T12:23:27.934Z,5.25
2023-01-25T12:26:00.306Z,7.70
2023-01-25T12:28:32.493Z,7.70
2023-01-25T12:31:03.862Z,6.70
2023-01-25T12:33:34.720Z,6.90
2023-01-25T12:36:04.849Z,5.63
2023-01-25T12:38:35.071Z,6.78
2023-01-25T12:41:04.892Z,5.32
2023-01-25T12:43:38.094Z,6.93
2023-01-25T12:46:09.594Z,5.10
2023-01-25T12:48:41.202Z,6.43
2023-01-25T12:51:09.264Z,8.38
2023-01-25T12:53:37.936Z,9.52
2023-01-25T12:56:07.249Z,6.28
2023-01-25T12:58:39.107Z,6.47
2023-01-25T13:01:12.936Z,6.90
2023-01-25T13:03:48.248Z,7.80
2023-01-25T13:06:19.370Z,6.55
2023-01-25T13:08:50.397Z,7.60
2023-01-25T13:11:20.629Z,5.88
2023-01-25T13:13:49.542Z,6.65
2023-01-25T13:16:34.549Z,7.13
2023-01-25T13:19:02.097Z,6.68
2023-01-25T13:21:39.983Z,6.47
2023-01-25T13:24:18.353Z,7.53
2023-01-25T13:26:50.328Z,7.38
2023-01-25T13:29:36.268Z,8.20
2023-01-25T13:32:05.821Z,8.30
2023-01-25T13:34:52.327Z,7.63
2023-01-25T13:37:20.934Z,7.57
2023-01-25T13:39:49.028Z,7.10
2023-01-25T13:42:20.361Z,9.02
2023-01-25T13:44:51.616Z,8.73
2023-01-25T13:47:21.566Z,8.60
2023-01-25T13:49:51.271Z,7.63
2023-01-25T13:52:19.710Z,6.95
2023-01-25T13:54:47.733Z,7.45
2023-01-25T13:57:16.101Z,5.20
2023-01-25T13:59:43.679Z,7.15
2023-01-25T14:02:14.935Z,7.75
2023-01-25T14:04:45.155Z,6.80
2023-01-25T14:07:16.101Z,7.53
2023-01-25T14:09:44.215Z,6.57
2023-01-25T14:12:12.436Z,7.38
2023-01-25T14:14:40.051Z,4.60
2023-01-25T14:17:17.859Z,6.13
2023-01-25T14:19:49.669Z,6.35
2023-01-25T14:22:21.814Z,7.93
2023-01-25T14:25:02.568Z,6.28
2023-01-25T14:27:30.225Z,8.15
2023-01-25T14:29:57.872Z,5.28
2023-01-25T14:32:27.149Z,4.25
2023-01-25T14:34:56.100Z,6.60
2023-01-25T14:37:23.703Z,7.03
2023-01-25T14:39:52.227Z,7.38
2023-01-25T14:42:20.114Z,5.95
2023-01-25T14:44:48.053Z,5.40
2023-01-25T14:47:30.682Z,5.75
2023-01-25T14:50:13.113Z,6.05
2023-01-25T14:52:42.078Z,5.90
2023-01-25T14:55:10.063Z,7.38
2023-01-25T14:57:38.827Z,6.72
2023-01-25T15:00:07.405Z,7.97
2023-01-25T15:02:38.867Z,5.47
2023-01-25T15:05:15.112Z,6.20
2023-01-25T15:07:46.228Z,6.97
2023-01-25T15:10:21.235Z,5.25
2023-01-25T15:13:07.701Z,7.90
2023-01-25T15:15:50.689Z,5.93
2023-01-25T15:18:33.124Z,6.22
2023-01-25T15:21:00.737Z,5.75
2023-01-25T15:23:30.684Z,8.15
2023-01-25T15:25:59.180Z,5.22
2023-01-25T15:28:27.747Z,6.68
2023-01-25T15:30:57.552Z,7.57
2023-01-25T15:33:26.466Z,5.30
2023-01-25T15:35:54.380Z,6.35
2023-01-25T15:38:22.820Z,7.18
2023-01-25T15:40:52.061Z,4.70
2023-01-25T15:43:20.429Z,5.57
2023-01-25T15:45:49.336Z,5.47
2023-01-25T15:48:17.878Z,5.78
2023-01-25T15:50:45.451Z,4.75
2023-01-25T15:53:14.972Z,4.65
2023-01-25T15:55:42.845Z,5.07
2023-01-25T15:58:14.478Z,6.22
2023-01-25T16:00:42.021Z,6.90
2023-01-25T16:03:09.650Z,7.20
2023-01-25T16:05:37.697Z,5.07
2023-01-25T16:08:05.446Z,3.75
2023-01-25T16:10:33.640Z,4.95
2023-01-25T16:13:02.431Z,6.07
2023-01-25T16:15:31.382Z,8.52
2023-01-25T16:17:58.929Z,8.05
2023-01-25T16:20:26.513Z,6.75
2023-01-25T16:22:54.082Z,7.18
2023-01-25T16:25:21.708Z,6.15
2023-01-25T16:27:49.292Z,6.50
2023-01-25T16:30:21.781Z,7.18
2023-01-25T16:32:52.929Z,6.25
2023-01-25T16:35:20.986Z,6.38
2023-01-25T16:37:48.756Z,6.65
2023-01-25T16:40:22.243Z,6.35
2023-01-25T16:42:49.825Z,7.47
2023-01-25T16:45:19.308Z,5.93
2023-01-25T16:47:47.360Z,8.65
2023-01-25T16:50:16.805Z,7.55
2023-01-25T16:52:45.735Z,7.32
2023-01-25T16:55:14.127Z,7.15
2023-01-25T16:57:43.453Z,7.80
2023-01-25T17:00:12.538Z,8.60
2023-01-25T17:02:46.796Z,5.63
2023-01-25T17:05:27.746Z,8.43
2023-01-25T17:07:55.575Z,6.53
2023-01-25T17:10:23.147Z,5.10
2023-01-25T17:12:51.240Z,6.32
2023-01-25T17:15:19.981Z,7.50
2023-01-25T17:17:47.660Z,6.85
2023-01-25T17:20:15.331Z,6.63
2023-01-25T17:22:49.535Z,6.15
2023-01-25T17:25:17.163Z,5.95
2023-01-25T17:27:44.780Z,5.50
2023-01-25T17:30:13.094Z,5.65
2023-01-25T17:32:40.942Z,6.45
2023-01-25T17:35:09.053Z,6.15
2023-01-25T17:37:40.904Z,6.70
2023-01-25T17:40:11.324Z,5.93
2023-01-25T17:42:39.145Z,6.97
2023-01-25T17:45:07.653Z,7.07
2023-01-25T17:47:35.516Z,5.90
2023-01-25T17:50:03.121Z,6.97
2023-01-25T17:52:30.685Z,7.30
2023-01-25T17:55:00.353Z,6.10
2023-01-25T17:57:31.533Z,6.28
2023-01-25T17:59:59.186Z,8.20
2023-01-25T18:02:26.800Z,7.10
2023-01-25T18:04:54.432Z,7.10
2023-01-25T18:07:22.064Z,7.68
2023-01-25T18:09:49.604Z,7.90
2023-01-25T18:12:20.538Z,7.85
2023-01-25T18:14:49.700Z,8.93
2023-01-25T18:17:17.385Z,7.57
2023-01-25T18:19:45.870Z,7.97
2023-01-25T18:22:13.951Z,8.30
2023-01-25T18:24:42.659Z,6.32
2023-01-25T18:27:18.272Z,8.50
2023-01-25T18:29:47.213Z,8.35
2023-01-25T18:32:16.563Z,10.20
2023-01-25T18:34:44.189Z,9.73
2023-01-25T18:37:21.747Z,10.98
2023-01-25T18:39:51.844Z,8.85
2023-01-25T18:42:20.000Z,9.95
2023-01-25T18:44:49.107Z,7.50
2023-01-25T18:47:18.888Z,15.50
2023-01-25T18:49:47.096Z,18.60
2023-01-25T18:52:15.950Z,17.40
2023-01-25T18:54:43.483Z,18.08
2023-01-25T18:57:12.009Z,17.58
2023-01-25T18:59:39.871Z,18.05
2023-01-25T19:02:08.108Z,17.63
2023-01-25T19:04:37.028Z,17.60
2023-01-25T19:07:04.772Z,18.30
2023-01-25T19:09:32.654Z,18.02
2023-01-25T19:12:00.502Z,19.05
2023-01-25T19:14:28.135Z,18.40
2023-01-25T19:16:55.745Z,19.98
2023-01-25T19:19:23.578Z,19.10
2023-01-25T19:21:52.525Z,19.20
2023-01-25T19:24:20.841Z,19.10
2023-01-25T19:26:48.488Z,18.70
2023-01-25T19:29:16.424Z,19.33
2023-01-25T19:31:44.108Z,20.38
2023-01-25T19:34:11.735Z,18.33
2023-01-25T19:36:43.625Z,19.48
2023-01-25T19:39:12.655Z,19.00
2023-01-25T19:41:40.242Z,18.23
2023-01-25T19:44:08.160Z,19.95
2023-01-25T19:46:36.359Z,18.95
2023-01-25T19:49:05.151Z,12.73
2023-01-25T19:51:33.390Z,16.25
2023-01-25T19:54:03.324Z,18.80
2023-01-25T19:56:35.482Z,17.30
2023-01-25T19:59:04.067Z,18.38
2023-01-25T20:01:31.959Z,7.65
2023-01-25T20:04:00.563Z,8.25
2023-01-25T20:06:28.456Z,6.72
2023-01-25T20:08:56.033Z,7.30
2023-01-25T20:11:24.535Z,8.77
2023-01-25T20:13:54.812Z,8.13
2023-01-25T20:16:22.665Z,7.97
2023-01-25T20:18:50.600Z,9.40
2023-01-25T20:21:19.363Z,7.65
2023-01-25T20:23:47.872Z,8.70
2023-01-25T20:26:16.564Z,8.63
2023-01-25T20:28:44.731Z,5.50
2023-01-25T20:31:20.987Z,7.20
2023-01-25T20:33:48.892Z,7.13
2023-01-25T20:36:16.481Z,8.13
2023-01-25T20:38:44.550Z,7.05
2023-01-25T20:41:14.229Z,7.32
2023-01-25T20:43:45.863Z,7.75
2023-01-25T20:46:13.413Z,7.22
2023-01-25T20:48:42.318Z,7.97
2023-01-25T20:51:12.930Z,6.20
2023-01-25T20:53:41.065Z,7.18
2023-01-25T20:56:09.670Z,7.00
2023-01-25T20:58:37.385Z,7.85
2023-01-25T21:01:05.158Z,6.90
2023-01-25T21:03:32.769Z,7.15
2023-01-25T21:06:01.688Z,8.02
2023-01-25T21:08:29.257Z,6.65
2023-01-25T21:10:58.066Z,8.27
2023-01-25T21:13:25.902Z,7.70
2023-01-25T21:16:00.241Z,6.68
2023-01-25T21:18:28.462Z,8.55
2023-01-25T21:21:01.630Z,7.10
2023-01-25T21:23:29.724Z,7.28
2023-01-25T21:25:57.622Z,7.38
2023-01-25T21:28:25.191Z,6.28
2023-01-25T21:30:53.066Z,7.65
2023-01-25T21:33:20.658Z,7.35
2023-01-25T21:35:53.305Z,7.43
2023-01-25T21:38:25.117Z,7.28
2023-01-25T21:40:52.748Z,6.25
2023-01-25T21:43:20.313Z,6.20
2023-01-25T21:46:05.249Z,6.38
2023-01-25T21:48:50.513Z,6.95
2023-01-25T21:51:36.307Z,7.03
2023-01-25T21:54:05.818Z,8.32
2023-01-25T21:56:33.407Z,6.68
2023-01-25T21:59:00.990Z,6.68
2023-01-25T22:01:28.588Z,7.20
2023-01-25T22:03:56.172Z,7.78
2023-01-25T22:06:23.728Z,7.32
2023-01-25T22:08:51.316Z,7.10
2023-01-25T22:11:20.352Z,6.50
2023-01-25T22:13:47.973Z,6.68
2023-01-25T22:16:15.681Z,7.75
2023-01-25T22:18:43.741Z,5.88
2023-01-25T22:21:15.266Z,7.72
2023-01-25T22:23:43.029Z,7.97
2023-01-25T22:26:11.279Z,5.88
2023-01-25T22:28:45.842Z,6.97
2023-01-25T22:31:13.716Z,6.13
2023-01-25T22:33:41.525Z,7.57
2023-01-25T22:36:09.778Z,9.50
2023-01-25T22:38:37.366Z,6.75
2023-01-25T22:41:06.089Z,7.80
2023-01-25T22:43:33.685Z,8.00
2023-01-25T22:46:02.956Z,6.18
2023-01-25T22:48:30.587Z,7.97
2023-01-25T22:51:01.237Z,7.53
2023-01-25T22:53:28.875Z,6.78
2023-01-25T22:56:03.066Z,8.18
2023-01-25T22:58:30.811Z,7.70
2023-01-25T23:00:58.386Z,7.47
2023-01-25T23:03:27.341Z,7.00
2023-01-25T23:06:01.300Z,7.90
2023-01-25T23:08:31.577Z,6.57
2023-01-25T23:11:01.385Z,7.05
2023-01-25T23:13:29.165Z,7.70
2023-01-25T23:15:56.907Z,8.50
2023-01-25T23:18:42.129Z,6.38
2023-01-25T23:21:11.056Z,6.13
2023-01-25T23:23:38.629Z,7.45
2023-01-25T23:26:06.563Z,8.15
2023-01-25T23:28:34.159Z,7.75
2023-01-25T23:31:17.035Z,7.85
2023-01-25T23:33:45.133Z,7.82
2023-01-25T23:36:15.164Z,6.30
2023-01-25T23:38:43.304Z,6.45
2023-01-25T23:41:10.875Z,7.15
2023-01-25T23:43:38.584Z,6.72
2023-01-25T23:46:06.478Z,7.63
2023-01-25T23:48:34.340Z,7.00
2023-01-25T23:51:02.591Z,7.55
2023-01-25T23:53:32.013Z,8.07
2023-01-25T23:56:00.473Z,6.72
2023-01-25T23:58:28.607Z,7.78
